sensor_id;sensor_type;location;lat;lon;timestamp;temperature;humidity
54516;DHT22;40422;45.892;4.738;2023-08-07T03:01:50;14.90;99.90
54516;DHT22;40422;45.892;4.738;2023-08-07T03:04:16;14.90;99.90
54516;DHT22;40422;45.892;4.738;2023-08-07T03:06:41;14.90;99.90
54516;DHT22;40422;45.892;4.738;2023-08-07T03:09:07;14.80;99.90
54516;DHT22;40422;45.892;4.738;2023-08-07T03:11:33;14.80;99.90
54516;DHT22;40422;45.892;4.738;2023-08-07T03:13:58;14.80;99.90
54516;DHT22;40422;45.892;4.738;2023-08-07T03:16:24;14.80;99.90
54516;DHT22;40422;45.892;4.738;2023-08-07T03:18:49;14.80;99.90
54516;DHT22;40422;45.892;4.738;2023-08-07T03:21:15;14.80;99.90
54516;DHT22;40422;45.892;4.738;2023-08-07T03:23:40;14.80;99.90
54516;DHT22;40422;45.892;4.738;2023-08-07T03:26:09;14.80;99.90
54516;DHT22;40422;45.892;4.738;2023-08-07T03:28:36;14.90;99.90
54516;DHT22;40422;45.892;4.738;2023-08-07T03:31:02;14.90;99.90
54516;DHT22;40422;45.892;4.738;2023-08-07T03:33:28;15.00;99.90
54516;DHT22;40422;45.892;4.738;2023-08-07T03:35:53;15.00;99.90
54516;DHT22;40422;45.892;4.738;2023-08-07T03:38:19;14.90;99.90
54516;DHT22;40422;45.892;4.738;2023-08-07T03:40:45;15.00;99.90
54516;DHT22;40422;45.892;4.738;2023-08-07T03:43:10;15.00;99.90
54516;DHT22;40422;45.892;4.738;2023-08-07T03:45:36;15.00;99.90
54516;DHT22;40422;45.892;4.738;2023-08-07T03:48:01;14.90;99.90
54516;DHT22;40422;45.892;4.738;2023-08-07T03:50:27;15.00;99.90
54516;DHT22;40422;45.892;4.738;2023-08-07T03:52:53;14.90;99.90
54516;DHT22;40422;45.892;4.738;2023-08-07T03:55:18;15.00;99.90
54516;DHT22;40422;45.892;4.738;2023-08-07T03:57:44;14.90;99.90
54516;DHT22;40422;45.892;4.738;2023-08-07T04:00:10;14.90;99.90
54516;DHT22;40422;45.892;4.738;2023-08-07T04:02:36;14.90;99.90
54516;DHT22;40422;45.892;4.738;2023-08-07T04:05:01;14.90;99.90
54516;DHT22;40422;45.892;4.738;2023-08-07T04:07:27;14.90;99.90
54516;DHT22;40422;45.892;4.738;2023-08-07T04:09:53;14.90;99.90
54516;DHT22;40422;45.892;4.738;2023-08-07T04:12:19;14.90;99.90
54516;DHT22;40422;45.892;4.738;2023-08-07T04:14:44;14.80;99.90
54516;DHT22;40422;45.892;4.738;2023-08-07T04:17:10;14.90;99.90
54516;DHT22;40422;45.892;4.738;2023-08-07T04:19:36;14.80;99.90
54516;DHT22;40422;45.892;4.738;2023-08-07T04:22:02;14.90;99.90
54516;DHT22;40422;45.892;4.738;2023-08-07T04:24:28;14.90;99.90
54516;DHT22;40422;45.892;4.738;2023-08-07T04:26:53;14.90;99.90
54516;DHT22;40422;45.892;4.738;2023-08-07T04:29:19;14.80;99.90
54516;DHT22;40422;45.892;4.738;2023-08-07T04:31:44;14.90;99.90
54516;DHT22;40422;45.892;4.738;2023-08-07T04:34:10;14.90;99.90
54516;DHT22;40422;45.892;4.738;2023-08-07T04:36:36;14.90;99.90
54516;DHT22;40422;45.892;4.738;2023-08-07T04:39:01;14.90;99.90
54516;DHT22;40422;45.892;4.738;2023-08-07T04:41:27;14.90;99.90
54516;DHT22;40422;45.892;4.738;2023-08-07T04:43:52;15.00;99.90
54516;DHT22;40422;45.892;4.738;2023-08-07T04:46:18;15.00;99.90
54516;DHT22;40422;45.892;4.738;2023-08-07T04:48:44;15.10;99.90
54516;DHT22;40422;45.892;4.738;2023-08-07T04:51:09;15.00;99.90
54516;DHT22;40422;45.892;4.738;2023-08-07T04:53:35;15.10;99.90
54516;DHT22;40422;45.892;4.738;2023-08-07T04:56:01;15.10;99.90
54516;DHT22;40422;45.892;4.738;2023-08-07T04:58:26;15.10;99.90
54516;DHT22;40422;45.892;4.738;2023-08-07T05:01:00;15.10;99.90
54516;DHT22;40422;45.892;4.738;2023-08-07T05:03:26;15.20;99.90
54516;DHT22;40422;45.892;4.738;2023-08-07T05:06:12;15.20;99.90
54516;DHT22;40422;45.892;4.738;2023-08-07T05:08:38;15.10;99.90
54516;DHT22;40422;45.892;4.738;2023-08-07T05:11:03;15.10;99.90
54516;DHT22;40422;45.892;4.738;2023-08-07T05:13:29;15.00;99.90
54516;DHT22;40422;45.892;4.738;2023-08-07T05:15:55;15.00;99.90
54516;DHT22;40422;45.892;4.738;2023-08-07T05:18:20;15.00;99.90
54516;DHT22;40422;45.892;4.738;2023-08-07T05:20:46;15.00;99.90
54516;DHT22;40422;45.892;4.738;2023-08-07T05:23:11;15.00;99.90
54516;DHT22;40422;45.892;4.738;2023-08-07T05:25:37;15.10;99.90
54516;DHT22;40422;45.892;4.738;2023-08-07T05:28:03;15.20;99.90
54516;DHT22;40422;45.892;4.738;2023-08-07T05:30:29;15.40;99.90
54516;DHT22;40422;45.892;4.738;2023-08-07T05:32:54;15.70;99.90
54516;DHT22;40422;45.892;4.738;2023-08-07T05:35:20;16.00;99.90
54516;DHT22;40422;45.892;4.738;2023-08-07T05:37:46;16.30;99.90
54516;DHT22;40422;45.892;4.738;2023-08-07T05:40:11;16.40;99.90
54516;DHT22;40422;45.892;4.738;2023-08-07T05:42:37;16.60;99.90
54516;DHT22;40422;45.892;4.738;2023-08-07T05:45:03;16.80;99.90
54516;DHT22;40422;45.892;4.738;2023-08-07T05:47:29;17.00;99.90
54516;DHT22;40422;45.892;4.738;2023-08-07T05:49:55;17.20;99.90
54516;DHT22;40422;45.892;4.738;2023-08-07T05:52:20;17.40;99.90
54516;DHT22;40422;45.892;4.738;2023-08-07T05:54:46;17.50;99.90
54516;DHT22;40422;45.892;4.738;2023-08-07T05:57:12;17.80;99.90
54516;DHT22;40422;45.892;4.738;2023-08-07T05:59:37;17.90;99.90
54516;DHT22;40422;45.892;4.738;2023-08-07T06:02:06;18.00;99.90
54516;DHT22;40422;45.892;4.738;2023-08-07T06:04:31;18.10;99.90
54516;DHT22;40422;45.892;4.738;2023-08-07T06:06:57;18.20;99.90
54516;DHT22;40422;45.892;4.738;2023-08-07T06:09:23;18.40;99.90
54516;DHT22;40422;45.892;4.738;2023-08-07T06:11:48;18.50;99.90
54516;DHT22;40422;45.892;4.738;2023-08-07T06:14:14;18.60;99.90
54516;DHT22;40422;45.892;4.738;2023-08-07T06:16:40;18.70;99.90
54516;DHT22;40422;45.892;4.738;2023-08-07T06:19:05;18.80;99.90
54516;DHT22;40422;45.892;4.738;2023-08-07T06:21:31;18.90;99.90
54516;DHT22;40422;45.892;4.738;2023-08-07T06:23:56;19.10;99.90
54516;DHT22;40422;45.892;4.738;2023-08-07T06:26:22;19.10;99.90
54516;DHT22;40422;45.892;4.738;2023-08-07T06:28:48;19.30;99.90
54516;DHT22;40422;45.892;4.738;2023-08-07T06:31:16;19.40;99.90
54516;DHT22;40422;45.892;4.738;2023-08-07T06:33:41;19.40;99.90
54516;DHT22;40422;45.892;4.738;2023-08-07T06:36:08;19.50;99.90
54516;DHT22;40422;45.892;4.738;2023-08-07T06:38:36;19.70;99.90
54516;DHT22;40422;45.892;4.738;2023-08-07T06:41:02;19.70;99.90
54516;DHT22;40422;45.892;4.738;2023-08-07T06:43:28;19.80;99.90
54516;DHT22;40422;45.892;4.738;2023-08-07T06:45:55;19.90;99.90
54516;DHT22;40422;45.892;4.738;2023-08-07T06:48:21;19.90;99.90
54516;DHT22;40422;45.892;4.738;2023-08-07T06:50:51;20.00;99.80
54516;DHT22;40422;45.892;4.738;2023-08-07T06:53:20;20.10;99.70
54516;DHT22;40422;45.892;4.738;2023-08-07T06:55:46;20.10;99.20
54516;DHT22;40422;45.892;4.738;2023-08-07T06:58:12;20.10;98.90
54516;DHT22;40422;45.892;4.738;2023-08-07T07:00:38;20.10;98.60
54516;DHT22;40422;45.892;4.738;2023-08-07T07:03:04;20.00;98.60
54516;DHT22;40422;45.892;4.738;2023-08-07T07:05:30;20.10;98.80
54516;DHT22;40422;45.892;4.738;2023-08-07T07:07:57;20.20;98.60
54516;DHT22;40422;45.892;4.738;2023-08-07T07:10:23;20.40;98.40
54516;DHT22;40422;45.892;4.738;2023-08-07T07:12:49;20.50;97.70
54516;DHT22;40422;45.892;4.738;2023-08-07T07:15:17;20.40;97.00
54516;DHT22;40422;45.892;4.738;2023-08-07T07:17:43;20.20;97.60
54516;DHT22;40422;45.892;4.738;2023-08-07T07:20:09;20.10;97.20
54516;DHT22;40422;45.892;4.738;2023-08-07T07:22:35;20.10;97.70
54516;DHT22;40422;45.892;4.738;2023-08-07T07:25:01;20.10;97.30
54516;DHT22;40422;45.892;4.738;2023-08-07T07:27:26;20.10;97.40
54516;DHT22;40422;45.892;4.738;2023-08-07T07:29:52;20.10;96.50
54516;DHT22;40422;45.892;4.738;2023-08-07T07:32:18;20.10;97.50
54516;DHT22;40422;45.892;4.738;2023-08-07T07:34:44;20.20;96.90
54516;DHT22;40422;45.892;4.738;2023-08-07T07:37:10;20.00;96.20
54516;DHT22;40422;45.892;4.738;2023-08-07T07:39:35;19.80;96.30
54516;DHT22;40422;45.892;4.738;2023-08-07T07:42:01;19.60;96.40
54516;DHT22;40422;45.892;4.738;2023-08-07T07:44:28;19.40;96.80
54516;DHT22;40422;45.892;4.738;2023-08-07T07:46:54;19.40;96.50
54516;DHT22;40422;45.892;4.738;2023-08-07T07:49:20;19.60;97.00
54516;DHT22;40422;45.892;4.738;2023-08-07T07:51:45;19.70;96.80
54516;DHT22;40422;45.892;4.738;2023-08-07T07:54:12;19.90;96.40
54516;DHT22;40422;45.892;4.738;2023-08-07T07:56:37;19.90;95.80
54516;DHT22;40422;45.892;4.738;2023-08-07T07:59:03;19.90;96.50
54516;DHT22;40422;45.892;4.738;2023-08-07T08:01:28;19.90;96.30
54516;DHT22;40422;45.892;4.738;2023-08-07T08:03:54;20.10;96.20
54516;DHT22;40422;45.892;4.738;2023-08-07T08:06:20;20.10;96.00
54516;DHT22;40422;45.892;4.738;2023-08-07T08:08:45;20.20;95.70
54516;DHT22;40422;45.892;4.738;2023-08-07T08:11:11;20.40;96.00
54516;DHT22;40422;45.892;4.738;2023-08-07T08:13:37;20.60;95.10
54516;DHT22;40422;45.892;4.738;2023-08-07T08:16:05;20.70;95.30
54516;DHT22;40422;45.892;4.738;2023-08-07T08:18:30;20.80;94.00
54516;DHT22;40422;45.892;4.738;2023-08-07T08:20:57;21.00;93.60
54516;DHT22;40422;45.892;4.738;2023-08-07T08:23:22;21.20;92.80
54516;DHT22;40422;45.892;4.738;2023-08-07T08:25:48;21.40;92.60
54516;DHT22;40422;45.892;4.738;2023-08-07T08:28:14;21.50;92.50
54516;DHT22;40422;45.892;4.738;2023-08-07T08:30:40;21.60;91.40
54516;DHT22;40422;45.892;4.738;2023-08-07T08:33:05;21.80;91.40
54516;DHT22;40422;45.892;4.738;2023-08-07T08:35:31;22.10;90.80
54516;DHT22;40422;45.892;4.738;2023-08-07T08:37:57;22.30;90.60
54516;DHT22;40422;45.892;4.738;2023-08-07T08:40:24;22.30;89.90
54516;DHT22;40422;45.892;4.738;2023-08-07T08:42:50;22.50;90.10
54516;DHT22;40422;45.892;4.738;2023-08-07T08:45:19;22.50;87.60
54516;DHT22;40422;45.892;4.738;2023-08-07T08:47:46;22.60;88.10
54516;DHT22;40422;45.892;4.738;2023-08-07T08:50:15;22.70;87.60
54516;DHT22;40422;45.892;4.738;2023-08-07T08:52:44;22.90;89.10
54516;DHT22;40422;45.892;4.738;2023-08-07T08:55:10;23.00;88.00
54516;DHT22;40422;45.892;4.738;2023-08-07T08:57:37;23.00;89.00
54516;DHT22;40422;45.892;4.738;2023-08-07T09:00:05;23.00;88.30
54516;DHT22;40422;45.892;4.738;2023-08-07T09:02:36;23.20;87.50
54516;DHT22;40422;45.892;4.738;2023-08-07T09:05:02;23.50;87.30
54516;DHT22;40422;45.892;4.738;2023-08-07T09:07:28;23.60;83.60
54516;DHT22;40422;45.892;4.738;2023-08-07T09:09:54;23.40;83.50
54516;DHT22;40422;45.892;4.738;2023-08-07T09:12:25;23.50;83.70
54516;DHT22;40422;45.892;4.738;2023-08-07T09:14:56;23.30;84.60
54516;DHT22;40422;45.892;4.738;2023-08-07T09:17:28;23.10;84.20
54516;DHT22;40422;45.892;4.738;2023-08-07T09:19:54;23.00;84.90
54516;DHT22;40422;45.892;4.738;2023-08-07T09:22:20;22.90;84.80
54516;DHT22;40422;45.892;4.738;2023-08-07T09:24:46;22.90;84.50
54516;DHT22;40422;45.892;4.738;2023-08-07T09:27:12;23.20;83.90
54516;DHT22;40422;45.892;4.738;2023-08-07T09:29:40;23.40;83.10
54516;DHT22;40422;45.892;4.738;2023-08-07T09:32:11;23.40;81.80
54516;DHT22;40422;45.892;4.738;2023-08-07T09:34:39;23.20;82.70
54516;DHT22;40422;45.892;4.738;2023-08-07T09:37:05;22.80;82.70
54516;DHT22;40422;45.892;4.738;2023-08-07T09:39:30;22.90;82.70
54516;DHT22;40422;45.892;4.738;2023-08-07T09:41:56;22.90;83.10
54516;DHT22;40422;45.892;4.738;2023-08-07T09:44:22;22.60;83.30
54516;DHT22;40422;45.892;4.738;2023-08-07T09:46:47;22.70;84.00
54516;DHT22;40422;45.892;4.738;2023-08-07T09:49:13;22.80;84.50
54516;DHT22;40422;45.892;4.738;2023-08-07T09:51:46;22.70;82.80
54516;DHT22;40422;45.892;4.738;2023-08-07T09:54:12;22.30;83.80
54516;DHT22;40422;45.892;4.738;2023-08-07T09:56:40;22.10;85.40
54516;DHT22;40422;45.892;4.738;2023-08-07T09:59:07;21.80;85.80
54516;DHT22;40422;45.892;4.738;2023-08-07T10:01:33;21.50;84.60
54516;DHT22;40422;45.892;4.738;2023-08-07T10:04:01;21.40;85.30
54516;DHT22;40422;45.892;4.738;2023-08-07T10:06:27;21.40;86.90
54516;DHT22;40422;45.892;4.738;2023-08-07T10:08:54;21.60;84.70
54516;DHT22;40422;45.892;4.738;2023-08-07T10:11:20;21.70;85.60
54516;DHT22;40422;45.892;4.738;2023-08-07T10:13:47;22.30;84.80
54516;DHT22;40422;45.892;4.738;2023-08-07T10:16:13;22.60;83.10
54516;DHT22;40422;45.892;4.738;2023-08-07T10:18:39;22.50;80.50
54516;DHT22;40422;45.892;4.738;2023-08-07T10:21:06;22.50;81.90
54516;DHT22;40422;45.892;4.738;2023-08-07T10:23:35;22.10;81.40
54516;DHT22;40422;45.892;4.738;2023-08-07T10:26:08;21.80;84.70
54516;DHT22;40422;45.892;4.738;2023-08-07T10:28:37;21.70;84.30
54516;DHT22;40422;45.892;4.738;2023-08-07T10:31:08;21.90;85.00
54516;DHT22;40422;45.892;4.738;2023-08-07T10:33:35;22.00;83.10
54516;DHT22;40422;45.892;4.738;2023-08-07T10:36:08;22.30;79.60
54516;DHT22;40422;45.892;4.738;2023-08-07T10:38:35;22.40;82.30
54516;DHT22;40422;45.892;4.738;2023-08-07T10:41:09;22.50;83.40
54516;DHT22;40422;45.892;4.738;2023-08-07T10:43:39;22.50;83.10
54516;DHT22;40422;45.892;4.738;2023-08-07T10:46:07;22.70;83.20
54516;DHT22;40422;45.892;4.738;2023-08-07T10:48:44;22.90;81.70
54516;DHT22;40422;45.892;4.738;2023-08-07T10:51:17;23.00;82.80
54516;DHT22;40422;45.892;4.738;2023-08-07T10:53:47;23.40;82.10
54516;DHT22;40422;45.892;4.738;2023-08-07T10:56:35;23.80;81.00
54516;DHT22;40422;45.892;4.738;2023-08-07T10:59:09;24.20;79.10
54516;DHT22;40422;45.892;4.738;2023-08-07T11:04:06;24.40;77.90
54516;DHT22;40422;45.892;4.738;2023-08-07T11:06:34;24.80;75.90
54516;DHT22;40422;45.892;4.738;2023-08-07T11:09:02;25.30;74.40
54516;DHT22;40422;45.892;4.738;2023-08-07T11:11:29;25.20;72.90
54516;DHT22;40422;45.892;4.738;2023-08-07T11:13:55;24.80;73.60
54516;DHT22;40422;45.892;4.738;2023-08-07T11:16:21;24.60;74.20
54516;DHT22;40422;45.892;4.738;2023-08-07T11:18:48;24.80;73.50
54516;DHT22;40422;45.892;4.738;2023-08-07T11:21:14;24.90;70.50
54516;DHT22;40422;45.892;4.738;2023-08-07T11:23:40;25.00;72.30
54516;DHT22;40422;45.892;4.738;2023-08-07T11:26:07;24.90;73.40
54516;DHT22;40422;45.892;4.738;2023-08-07T11:28:33;24.90;72.90
54516;DHT22;40422;45.892;4.738;2023-08-07T11:31:00;24.40;72.80
54516;DHT22;40422;45.892;4.738;2023-08-07T11:33:27;24.30;74.10
54516;DHT22;40422;45.892;4.738;2023-08-07T11:35:54;24.60;74.40
54516;DHT22;40422;45.892;4.738;2023-08-07T11:38:32;25.00;73.60
54516;DHT22;40422;45.892;4.738;2023-08-07T11:41:02;25.20;72.00
54516;DHT22;40422;45.892;4.738;2023-08-07T11:43:31;25.60;71.60
54516;DHT22;40422;45.892;4.738;2023-08-07T11:45:58;25.60;71.00
54516;DHT22;40422;45.892;4.738;2023-08-07T11:48:28;25.00;69.30
54516;DHT22;40422;45.892;4.738;2023-08-07T11:50:56;24.50;71.80
54516;DHT22;40422;45.892;4.738;2023-08-07T11:53:22;23.70;72.90
54516;DHT22;40422;45.892;4.738;2023-08-07T11:58:26;24.30;74.70
54516;DHT22;40422;45.892;4.738;2023-08-07T12:00:52;24.70;72.70
54516;DHT22;40422;45.892;4.738;2023-08-07T12:03:28;25.20;71.40
54516;DHT22;40422;45.892;4.738;2023-08-07T12:05:58;25.60;68.80
54516;DHT22;40422;45.892;4.738;2023-08-07T12:08:24;25.80;70.10
54516;DHT22;40422;45.892;4.738;2023-08-07T12:10:53;25.80;70.80
54516;DHT22;40422;45.892;4.738;2023-08-07T12:13:26;25.50;71.60
54516;DHT22;40422;45.892;4.738;2023-08-07T12:15:55;25.00;71.70
54516;DHT22;40422;45.892;4.738;2023-08-07T12:18:22;25.10;72.40
54516;DHT22;40422;45.892;4.738;2023-08-07T12:20:52;25.60;71.10
54516;DHT22;40422;45.892;4.738;2023-08-07T12:23:20;26.20;70.80
54516;DHT22;40422;45.892;4.738;2023-08-07T12:25:46;26.60;69.80
54516;DHT22;40422;45.892;4.738;2023-08-07T12:28:12;26.60;67.50
54516;DHT22;40422;45.892;4.738;2023-08-07T12:30:38;26.50;68.20
54516;DHT22;40422;45.892;4.738;2023-08-07T12:33:05;26.60;67.80
54516;DHT22;40422;45.892;4.738;2023-08-07T12:35:35;26.20;66.90
54516;DHT22;40422;45.892;4.738;2023-08-07T12:38:01;26.10;65.90
54516;DHT22;40422;45.892;4.738;2023-08-07T12:40:30;26.10;63.80
54516;DHT22;40422;45.892;4.738;2023-08-07T12:42:56;26.20;63.70
54516;DHT22;40422;45.892;4.738;2023-08-07T12:45:22;26.20;63.90
54516;DHT22;40422;45.892;4.738;2023-08-07T12:47:48;26.20;65.30
54516;DHT22;40422;45.892;4.738;2023-08-07T12:50:14;26.40;66.50
54516;DHT22;40422;45.892;4.738;2023-08-07T12:52:39;26.90;65.80
54516;DHT22;40422;45.892;4.738;2023-08-07T12:55:05;27.00;64.60
54516;DHT22;40422;45.892;4.738;2023-08-07T12:57:32;27.50;64.70
54516;DHT22;40422;45.892;4.738;2023-08-07T12:59:58;28.30;64.70
54516;DHT22;40422;45.892;4.738;2023-08-07T13:02:23;28.70;63.50
54516;DHT22;40422;45.892;4.738;2023-08-07T13:04:49;28.40;63.30
54516;DHT22;40422;45.892;4.738;2023-08-07T13:07:16;27.70;64.20
54516;DHT22;40422;45.892;4.738;2023-08-07T13:09:42;27.40;64.90
54516;DHT22;40422;45.892;4.738;2023-08-07T13:12:08;26.60;65.80
54516;DHT22;40422;45.892;4.738;2023-08-07T13:14:33;26.20;66.90
54516;DHT22;40422;45.892;4.738;2023-08-07T13:17:00;26.60;66.00
54516;DHT22;40422;45.892;4.738;2023-08-07T13:19:26;27.20;65.70
54516;DHT22;40422;45.892;4.738;2023-08-07T13:21:52;27.90;63.80
54516;DHT22;40422;45.892;4.738;2023-08-07T13:24:17;28.40;61.90
54516;DHT22;40422;45.892;4.738;2023-08-07T13:26:43;28.60;62.40
54516;DHT22;40422;45.892;4.738;2023-08-07T13:29:12;28.50;62.30
54516;DHT22;40422;45.892;4.738;2023-08-07T13:31:37;28.40;62.20
54516;DHT22;40422;45.892;4.738;2023-08-07T13:34:03;28.50;62.30
54516;DHT22;40422;45.892;4.738;2023-08-07T13:36:36;28.90;61.80
54516;DHT22;40422;45.892;4.738;2023-08-07T13:39:04;29.40;60.60
54516;DHT22;40422;45.892;4.738;2023-08-07T13:41:31;30.20;59.40
54516;DHT22;40422;45.892;4.738;2023-08-07T13:44:00;30.90;58.10
54516;DHT22;40422;45.892;4.738;2023-08-07T13:46:26;31.10;58.00
54516;DHT22;40422;45.892;4.738;2023-08-07T13:48:52;30.40;57.80
54516;DHT22;40422;45.892;4.738;2023-08-07T13:51:18;29.70;59.20
54516;DHT22;40422;45.892;4.738;2023-08-07T13:53:44;29.00;60.10
54516;DHT22;40422;45.892;4.738;2023-08-07T13:56:10;28.70;60.40
54516;DHT22;40422;45.892;4.738;2023-08-07T13:58:38;28.40;58.50
54516;DHT22;40422;45.892;4.738;2023-08-07T14:01:04;28.30;60.50
54516;DHT22;40422;45.892;4.738;2023-08-07T14:03:30;28.30;59.40
54516;DHT22;40422;45.892;4.738;2023-08-07T14:05:55;28.50;58.70
54516;DHT22;40422;45.892;4.738;2023-08-07T14:08:21;28.80;59.40
54516;DHT22;40422;45.892;4.738;2023-08-07T14:10:47;29.00;59.40
54516;DHT22;40422;45.892;4.738;2023-08-07T14:13:12;29.60;58.10
54516;DHT22;40422;45.892;4.738;2023-08-07T14:15:38;29.10;56.30
54516;DHT22;40422;45.892;4.738;2023-08-07T14:18:03;28.70;58.30
54516;DHT22;40422;45.892;4.738;2023-08-07T14:20:32;28.50;57.60
54516;DHT22;40422;45.892;4.738;2023-08-07T14:22:58;28.70;59.10
54516;DHT22;40422;45.892;4.738;2023-08-07T14:25:24;29.00;58.70
54516;DHT22;40422;45.892;4.738;2023-08-07T14:27:50;29.20;59.80
54516;DHT22;40422;45.892;4.738;2023-08-07T14:30:16;29.50;58.90
54516;DHT22;40422;45.892;4.738;2023-08-07T14:32:41;29.80;57.30
54516;DHT22;40422;45.892;4.738;2023-08-07T14:35:12;30.50;56.80
54516;DHT22;40422;45.892;4.738;2023-08-07T14:37:39;30.70;56.10
54516;DHT22;40422;45.892;4.738;2023-08-07T14:40:05;30.90;56.40
54516;DHT22;40422;45.892;4.738;2023-08-07T14:42:31;30.70;54.80
54516;DHT22;40422;45.892;4.738;2023-08-07T14:44:56;30.50;56.20
54516;DHT22;40422;45.892;4.738;2023-08-07T14:47:22;29.90;57.20
54516;DHT22;40422;45.892;4.738;2023-08-07T14:49:48;30.00;56.20
54516;DHT22;40422;45.892;4.738;2023-08-07T14:52:13;30.50;54.80
54516;DHT22;40422;45.892;4.738;2023-08-07T14:54:39;31.10;54.70
54516;DHT22;40422;45.892;4.738;2023-08-07T14:57:04;31.30;54.80
54516;DHT22;40422;45.892;4.738;2023-08-07T14:59:30;31.40;54.80
54516;DHT22;40422;45.892;4.738;2023-08-07T15:01:56;31.70;54.00
54516;DHT22;40422;45.892;4.738;2023-08-07T15:04:21;32.00;53.10
54516;DHT22;40422;45.892;4.738;2023-08-07T15:06:47;32.30;53.10
54516;DHT22;40422;45.892;4.738;2023-08-07T15:09:14;32.30;52.80
54516;DHT22;40422;45.892;4.738;2023-08-07T15:11:39;32.20;53.30
54516;DHT22;40422;45.892;4.738;2023-08-07T15:14:05;32.30;53.30
54516;DHT22;40422;45.892;4.738;2023-08-07T15:16:31;32.60;52.60
54516;DHT22;40422;45.892;4.738;2023-08-07T15:18:57;32.80;52.70
54516;DHT22;40422;45.892;4.738;2023-08-07T15:21:23;32.70;52.70
54516;DHT22;40422;45.892;4.738;2023-08-07T15:23:48;32.70;51.80
54516;DHT22;40422;45.892;4.738;2023-08-07T15:26:14;32.80;51.90
54516;DHT22;40422;45.892;4.738;2023-08-07T15:28:40;33.10;51.60
54516;DHT22;40422;45.892;4.738;2023-08-07T15:31:05;33.30;51.60
54516;DHT22;40422;45.892;4.738;2023-08-07T15:33:31;32.90;52.30
54516;DHT22;40422;45.892;4.738;2023-08-07T15:35:57;32.40;52.90
54516;DHT22;40422;45.892;4.738;2023-08-07T15:38:25;31.40;53.20
54516;DHT22;40422;45.892;4.738;2023-08-07T15:40:51;30.60;53.60
54516;DHT22;40422;45.892;4.738;2023-08-07T15:43:16;29.90;54.30
54516;DHT22;40422;45.892;4.738;2023-08-07T15:45:44;29.00;55.30
54516;DHT22;40422;45.892;4.738;2023-08-07T15:48:10;28.70;55.40
54516;DHT22;40422;45.892;4.738;2023-08-07T15:50:36;28.40;56.10
54516;DHT22;40422;45.892;4.738;2023-08-07T15:53:05;28.20;57.40
54516;DHT22;40422;45.892;4.738;2023-08-07T15:55:31;28.50;56.80
54516;DHT22;40422;45.892;4.738;2023-08-07T15:58:00;29.10;55.90
54516;DHT22;40422;45.892;4.738;2023-08-07T16:00:27;29.90;55.60
54516;DHT22;40422;45.892;4.738;2023-08-07T16:02:54;30.40;55.00
54516;DHT22;40422;45.892;4.738;2023-08-07T16:05:20;30.80;54.70
54516;DHT22;40422;45.892;4.738;2023-08-07T16:07:46;31.10;53.90
54516;DHT22;40422;45.892;4.738;2023-08-07T16:10:15;31.20;53.80
54516;DHT22;40422;45.892;4.738;2023-08-07T16:12:40;31.40;53.40
54516;DHT22;40422;45.892;4.738;2023-08-07T16:15:06;31.40;52.80
54516;DHT22;40422;45.892;4.738;2023-08-07T16:17:32;31.10;52.50
54516;DHT22;40422;45.892;4.738;2023-08-07T16:19:57;30.90;52.60
54516;DHT22;40422;45.892;4.738;2023-08-07T16:22:23;30.80;53.20
54516;DHT22;40422;45.892;4.738;2023-08-07T16:24:49;30.90;53.60
54516;DHT22;40422;45.892;4.738;2023-08-07T16:27:14;30.90;54.10
54516;DHT22;40422;45.892;4.738;2023-08-07T16:29:40;31.10;53.40
54516;DHT22;40422;45.892;4.738;2023-08-07T16:32:05;31.10;53.10
54516;DHT22;40422;45.892;4.738;2023-08-07T16:34:32;30.00;53.20
54516;DHT22;40422;45.892;4.738;2023-08-07T16:36:58;29.10;54.60
54516;DHT22;40422;45.892;4.738;2023-08-07T16:39:24;29.10;55.10
54516;DHT22;40422;45.892;4.738;2023-08-07T16:41:49;29.30;54.80
54516;DHT22;40422;45.892;4.738;2023-08-07T16:44:15;29.70;54.70
54516;DHT22;40422;45.892;4.738;2023-08-07T16:46:41;29.70;54.90
54516;DHT22;40422;45.892;4.738;2023-08-07T16:49:06;29.50;54.50
54516;DHT22;40422;45.892;4.738;2023-08-07T16:51:32;29.00;54.00
54516;DHT22;40422;45.892;4.738;2023-08-07T16:53:58;28.70;54.70
54516;DHT22;40422;45.892;4.738;2023-08-07T16:56:24;28.60;55.30
54516;DHT22;40422;45.892;4.738;2023-08-07T16:58:49;28.60;55.30
54516;DHT22;40422;45.892;4.738;2023-08-07T17:01:16;28.80;56.30
54516;DHT22;40422;45.892;4.738;2023-08-07T17:03:42;29.00;55.20
54516;DHT22;40422;45.892;4.738;2023-08-07T17:06:08;29.10;54.80
54516;DHT22;40422;45.892;4.738;2023-08-07T17:08:34;29.10;55.00
54516;DHT22;40422;45.892;4.738;2023-08-07T17:10:59;29.20;55.40
54516;DHT22;40422;45.892;4.738;2023-08-07T17:13:25;29.30;55.30
54516;DHT22;40422;45.892;4.738;2023-08-07T17:15:51;29.20;55.00
54516;DHT22;40422;45.892;4.738;2023-08-07T17:18:17;29.10;55.60
54516;DHT22;40422;45.892;4.738;2023-08-07T17:20:43;29.00;55.70
54516;DHT22;40422;45.892;4.738;2023-08-07T17:23:08;28.80;55.70
54516;DHT22;40422;45.892;4.738;2023-08-07T17:25:34;28.70;56.40
54516;DHT22;40422;45.892;4.738;2023-08-07T17:27:59;28.60;55.90
54516;DHT22;40422;45.892;4.738;2023-08-07T17:30:25;28.30;56.20
54516;DHT22;40422;45.892;4.738;2023-08-07T17:32:52;28.10;56.80
54516;DHT22;40422;45.892;4.738;2023-08-07T17:35:18;27.90;57.30
54516;DHT22;40422;45.892;4.738;2023-08-07T17:37:44;27.70;57.10
54516;DHT22;40422;45.892;4.738;2023-08-07T17:40:10;27.50;57.00
54516;DHT22;40422;45.892;4.738;2023-08-07T17:42:37;27.30;57.60
54516;DHT22;40422;45.892;4.738;2023-08-07T17:45:03;27.00;58.40
54516;DHT22;40422;45.892;4.738;2023-08-07T17:47:29;26.70;58.50
54516;DHT22;40422;45.892;4.738;2023-08-07T17:49:55;26.40;59.30
54516;DHT22;40422;45.892;4.738;2023-08-07T17:52:20;26.10;59.40
54516;DHT22;40422;45.892;4.738;2023-08-07T17:54:46;26.00;59.80
54516;DHT22;40422;45.892;4.738;2023-08-07T17:57:15;25.80;60.60
54516;DHT22;40422;45.892;4.738;2023-08-07T17:59:41;25.70;61.10
54516;DHT22;40422;45.892;4.738;2023-08-07T18:02:07;25.50;61.10
54516;DHT22;40422;45.892;4.738;2023-08-07T18:04:33;25.40;61.40
54516;DHT22;40422;45.892;4.738;2023-08-07T18:06:58;25.20;61.90
54516;DHT22;40422;45.892;4.738;2023-08-07T18:09:24;25.10;62.30
54516;DHT22;40422;45.892;4.738;2023-08-07T18:11:49;25.00;62.40
54516;DHT22;40422;45.892;4.738;2023-08-07T18:14:15;24.80;63.00
54516;DHT22;40422;45.892;4.738;2023-08-07T18:16:41;24.70;63.50
54516;DHT22;40422;45.892;4.738;2023-08-07T18:19:06;24.60;63.90
54516;DHT22;40422;45.892;4.738;2023-08-07T18:21:32;24.50;64.30
54516;DHT22;40422;45.892;4.738;2023-08-07T18:23:57;24.40;64.50
54516;DHT22;40422;45.892;4.738;2023-08-07T18:26:23;24.30;65.10
54516;DHT22;40422;45.892;4.738;2023-08-07T18:28:49;24.20;65.10
54516;DHT22;40422;45.892;4.738;2023-08-07T18:31:14;24.10;65.10